Time;durP1;ratioP1;P1;durP2;ratioP2;P2;SDS_P1;SDS_P2;PMS_P1;PMS_P2;Temp;Humidity;BMP_temperature;BMP_pressure;BME280_temperature;BME280_humidity;BME280_pressure;Samples;Min_cycle;Max_cycle;Signal;HPM_P1;HPM_P2
2021/11/30 00:00:29;;;;;;;1.77;1.17;;;-1.90;99.90;-3.70;95838.00;;;;5053380;28;20438;-84
2021/11/30 00:03:18;;;;;;;0.60;0.60;;;-3.00;99.90;-3.80;95812.00;;;;5053009;28;20970;-85
2021/11/30 00:06:09;;;;;;;0.97;0.90;;;-3.00;99.90;-4.00;95832.00;;;;5053523;28;20419;-84
2021/11/30 00:09:20;;;;;;;1.20;1.10;;;-3.10;99.90;-3.90;95827.00;;;;5054356;28;20477;-84
2021/11/30 00:12:12;;;;;;;1.80;1.70;;;-3.10;99.90;-4.40;95840.00;;;;5056423;28;20830;-83
2021/11/30 00:15:02;;;;;;;1.80;1.17;;;-3.20;99.90;-4.40;95822.00;;;;5053315;28;20470;-83
2021/11/30 00:17:51;;;;;;;1.20;1.10;;;-3.30;99.90;-4.10;95846.00;;;;5054282;28;20448;-84
2021/11/30 00:20:42;;;;;;;5.00;1.40;;;-3.30;99.90;-4.10;95836.00;;;;5051536;28;20435;-84
2021/11/30 00:23:31;;;;;;;1.03;0.73;;;-3.30;99.90;-4.10;95847.00;;;;5053812;28;20435;-84
2021/11/30 00:26:20;;;;;;;1.87;1.30;;;-3.30;99.90;-4.20;95840.00;;;;5055008;28;20432;-84
2021/11/30 00:29:09;;;;;;;1.10;1.10;;;-3.40;99.90;-4.20;95840.00;;;;5053742;28;20462;-84
2021/11/30 00:31:59;;;;;;;1.10;1.00;;;-3.40;99.90;-4.40;95828.00;;;;5054950;28;20439;-82
2021/11/30 00:34:48;;;;;;;3.00;1.53;;;-3.40;99.90;-4.70;95842.00;;;;5054822;28;20475;-86
2021/11/30 00:37:37;;;;;;;0.83;0.83;;;-3.50;99.90;-4.50;95844.00;;;;5054066;28;20496;-84
2021/11/30 00:40:27;;;;;;;2.97;0.90;;;-3.60;99.90;-5.10;95851.00;;;;5055420;28;20427;-83
2021/11/30 00:43:20;;;;;;;1.90;1.23;;;-3.70;99.90;-4.50;95877.00;;;;5056746;28;20427;-84
2021/11/30 00:46:13;;;;;;;1.20;0.90;;;-3.70;99.90;-4.40;95851.00;;;;5060716;28;20822;-84
2021/11/30 00:49:06;;;;;;;1.30;1.20;;;-3.70;99.90;-4.70;95888.00;;;;5045822;28;20822;-84
2021/11/30 00:51:57;;;;;;;1.67;1.10;;;-3.70;99.90;-4.60;95899.00;;;;5059772;28;20422;-83
2021/11/30 00:54:47;;;;;;;1.13;1.03;;;-3.70;99.90;-4.60;95896.00;;;;5074193;28;20482;-84
2021/11/30 00:57:39;;;;;;;2.40;1.30;;;-3.70;99.90;-4.60;95898.00;;;;5060120;28;20819;-85
2021/11/30 01:00:30;;;;;;;1.23;1.13;;;-3.70;99.90;-4.70;95904.00;;;;5054715;28;20435;-85
2021/11/30 01:03:19;;;;;;;1.20;1.20;;;-3.80;99.90;-4.60;95921.00;;;;5054850;28;20431;-84
2021/11/30 01:06:10;;;;;;;2.23;1.40;;;-3.80;99.90;-4.80;95905.00;;;;5055502;28;20423;-85
2021/11/30 01:08:59;;;;;;;0.97;0.93;;;-3.80;99.90;-4.60;95922.00;;;;5052215;28;20467;-85
2021/11/30 01:11:50;;;;;;;3.67;1.50;;;-3.80;99.90;-4.60;95917.00;;;;5053902;28;20621;-85
2021/11/30 01:14:39;;;;;;;1.73;1.63;;;-3.80;99.90;-4.60;95916.00;;;;5053377;28;20427;-84
2021/11/30 01:17:28;;;;;;;1.93;1.00;;;-3.80;99.90;-5.10;95931.00;;;;5054549;28;20431;-83
2021/11/30 01:20:18;;;;;;;3.90;1.67;;;-3.70;99.90;-4.80;95925.00;;;;5054404;28;20428;-83
2021/11/30 01:23:09;;;;;;;2.13;1.37;;;-3.90;99.90;-4.70;95931.00;;;;5054595;28;20831;-84
2021/11/30 01:25:58;;;;;;;2.10;1.47;;;-3.90;99.90;-4.70;95936.00;;;;5053985;28;20450;-85
2021/11/30 01:28:47;;;;;;;0.97;0.97;;;-4.70;99.90;-4.90;95943.00;;;;5056894;28;20972;-85
2021/11/30 01:31:36;;;;;;;1.57;1.40;;;-3.90;99.90;-4.90;95938.00;;;;5056621;28;20438;-83
2021/11/30 01:34:25;;;;;;;1.43;1.33;;;-4.00;99.90;-4.90;95940.00;;;;5058043;28;20944;-83
2021/11/30 01:37:15;;;;;;;1.40;1.30;;;-4.00;99.90;-5.00;95938.00;;;;5058273;28;20427;-84
2021/11/30 01:40:10;;;;;;;1.47;1.30;;;-4.10;99.90;-5.10;95952.00;;;;5057453;28;20423;-85
2021/11/30 01:43:01;;;;;;;2.50;1.10;;;-4.10;99.90;-5.20;95947.00;;;;5060222;28;20428;-86
2021/11/30 01:45:58;;;;;;;1.30;1.30;;;-4.20;99.90;-5.10;95972.00;;;;5062869;28;20433;-84
2021/11/30 01:51:53;;;;;;;1.10;1.00;;;-4.20;99.90;-5.20;95971.00;;;;5057154;28;20429;-84
2021/11/30 01:54:44;;;;;;;3.13;1.20;;;-4.20;99.90;-5.30;95964.00;;;;5059885;28;20416;-83
2021/11/30 01:57:34;;;;;;;6.70;1.17;;;-4.30;99.90;-5.10;95984.00;;;;5060571;28;20423;-84
2021/11/30 02:00:25;;;;;;;0.70;0.70;;;-4.30;99.90;-5.80;95979.00;;;;5058714;28;20442;-85
2021/11/30 02:03:14;;;;;;;1.50;1.03;;;-4.40;99.90;-5.50;95993.00;;;;5058772;28;20438;-84
2021/11/30 02:06:04;;;;;;;0.97;0.90;;;-4.50;99.90;-5.40;95982.00;;;;5059291;28;20435;-85
2021/11/30 02:08:53;;;;;;;1.03;0.90;;;-4.50;99.90;-5.30;95990.00;;;;5058876;28;20980;-84
2021/11/30 02:11:42;;;;;;;0.90;0.90;;;-4.50;99.90;-5.80;95985.00;;;;5059230;28;20427;-84
2021/11/30 02:14:33;;;;;;;0.70;0.70;;;-4.50;99.90;-5.70;95989.00;;;;5059289;28;20435;-84
2021/11/30 02:17:21;;;;;;;0.83;0.80;;;-4.30;99.90;-5.50;95995.00;;;;5057361;28;20446;-84
2021/11/30 02:20:13;;;;;;;1.77;1.20;;;-4.60;99.90;-5.20;96004.00;;;;5058012;28;20431;-83
2021/11/30 02:23:04;;;;;;;0.77;0.77;;;-4.50;99.90;-5.20;95998.00;;;;5051828;28;20427;-85
2021/11/30 02:25:53;;;;;;;0.77;0.70;;;-4.40;99.90;-5.30;95999.00;;;;5054482;28;20431;-83
2021/11/30 02:28:46;;;;;;;0.77;0.77;;;-4.40;99.90;-5.20;96003.00;;;;5057181;28;20457;-84
2021/11/30 02:31:37;;;;;;;1.50;1.40;;;-4.20;99.90;-5.50;95998.00;;;;5058349;28;20968;-84
2021/11/30 02:34:26;;;;;;;1.90;1.27;;;-4.40;99.90;-5.20;96005.00;;;;5056357;28;20423;-84
2021/11/30 02:37:23;;;;;;;1.37;1.20;;;-4.40;99.90;-5.10;95998.00;;;;5056453;28;20475;-83
2021/11/30 02:40:13;;;;;;;3.33;1.37;;;-4.40;99.90;-5.10;96000.00;;;;5057574;28;20431;-84
2021/11/30 02:43:02;;;;;;;1.40;1.30;;;-4.40;99.90;-5.70;96000.00;;;;5057162;28;20433;-85
2021/11/30 02:45:51;;;;;;;0.70;0.70;;;-4.40;99.90;-5.60;96007.00;;;;5052404;28;20435;-84
2021/11/30 02:48:40;;;;;;;1.20;1.10;;;-4.50;99.90;-5.40;96011.00;;;;5057304;28;20840;-85
2021/11/30 02:51:29;;;;;;;1.67;1.47;;;-4.50;99.90;-5.40;96013.00;;;;5053938;28;20834;-84
2021/11/30 02:54:22;;;;;;;1.50;1.40;;;-4.50;99.90;-5.50;96017.00;;;;5055669;28;20427;-84
2021/11/30 02:57:14;;;;;;;1.67;1.57;;;-4.50;99.90;-5.70;96020.00;;;;5042154;28;20475;-83
2021/11/30 03:00:06;;;;;;;3.60;1.70;;;-4.20;99.90;-5.80;96018.00;;;;5056524;28;20435;-84
2021/11/30 03:02:55;;;;;;;1.20;1.10;;;-4.60;99.90;-5.60;96029.00;;;;5049788;28;20420;-84
2021/11/30 03:05:43;;;;;;;0.70;0.70;;;-4.30;99.90;-6.00;96039.00;;;;5054811;28;20431;-83
2021/11/30 03:08:32;;;;;;;0.87;0.80;;;-4.70;99.90;-5.90;96035.00;;;;5056702;28;20452;-84
2021/11/30 03:11:22;;;;;;;0.70;0.70;;;-4.70;99.90;-5.40;96039.00;;;;5056680;28;20439;-84
2021/11/30 03:14:11;;;;;;;2.60;0.93;;;-4.80;99.90;-5.70;96032.00;;;;5056222;28;20431;-83
2021/11/30 03:17:01;;;;;;;1.10;1.10;;;-4.70;99.90;-5.40;96046.00;;;;5055292;28;20472;-84
2021/11/30 03:19:50;;;;;;;1.00;1.00;;;-4.70;99.90;-5.40;96042.00;;;;5056207;28;20439;-84
2021/11/30 03:22:39;;;;;;;1.37;1.27;;;-4.70;99.90;-5.30;96043.00;;;;5055763;28;20420;-84
2021/11/30 03:25:28;;;;;;;0.67;0.67;;;-4.40;99.90;-5.00;96040.00;;;;5049442;28;20431;-83
2021/11/30 03:28:18;;;;;;;0.90;0.90;;;-4.40;99.90;-4.90;96054.00;;;;5055977;28;20447;-83
2021/11/30 03:31:08;;;;;;;1.07;1.00;;;-4.30;99.90;-4.80;96059.00;;;;5056078;28;20423;-83
2021/11/30 03:34:00;;;;;;;1.10;1.00;;;-4.20;99.90;-5.30;96050.00;;;;5055782;28;20442;-83
2021/11/30 03:36:53;;;;;;;6.20;2.27;;;-4.20;99.90;-5.50;96044.00;;;;5057058;28;20459;-84
2021/11/30 03:39:42;;;;;;;3.73;1.90;;;-4.30;99.90;-5.40;96041.00;;;;5074257;28;20440;-83
2021/11/30 03:42:30;;;;;;;2.70;1.90;;;-2.90;99.90;-5.20;96050.00;;;;5067844;28;20442;-84
2021/11/30 03:45:21;;;;;;;1.20;1.20;;;-4.40;99.90;-5.30;96044.00;;;;5056493;28;20442;-83
2021/11/30 03:48:10;;;;;;;3.60;1.60;;;-4.40;99.90;-5.10;96053.00;;;;5060362;28;20447;-83
2021/11/30 03:50:59;;;;;;;1.20;1.10;;;-4.40;99.90;-5.10;96058.00;;;;5053942;28;20439;-83
2021/11/30 03:53:47;;;;;;;1.60;1.37;;;-4.40;99.90;-5.20;96049.00;;;;5052087;28;20432;-83
2021/11/30 03:56:38;;;;;;;1.30;1.10;;;-4.40;99.90;-5.10;96049.00;;;;5051221;28;21016;-85
2021/11/30 03:59:27;;;;;;;1.73;1.37;;;-4.30;99.90;-5.10;96052.00;;;;5053210;28;20451;-82
2021/11/30 04:02:17;;;;;;;1.30;1.20;;;-4.30;99.90;-5.00;96041.00;;;;5055795;28;20951;-82
2021/11/30 04:05:09;;;;;;;3.40;1.67;;;-4.30;99.90;-5.40;96038.00;;;;5055225;28;20845;-83
2021/11/30 04:07:58;;;;;;;1.77;1.67;;;-4.30;99.90;-5.30;96044.00;;;;5056369;28;20462;-84
2021/11/30 04:10:47;;;;;;;1.30;1.20;;;-4.40;99.90;-5.30;96057.00;;;;5055568;28;20434;-83
2021/11/30 04:13:37;;;;;;;2.40;1.60;;;-4.40;99.90;-5.50;96058.00;;;;5056500;28;20451;-83
2021/11/30 04:16:26;;;;;;;0.90;0.90;;;-4.50;99.90;-5.40;96065.00;;;;5056487;28;20472;-85
2021/11/30 04:19:16;;;;;;;1.07;1.07;;;-4.50;99.90;-5.30;96066.00;;;;5054894;28;20451;-85
2021/11/30 04:22:05;;;;;;;2.17;1.40;;;-4.50;99.90;-5.30;96065.00;;;;5055087;28;20841;-85
2021/11/30 04:24:54;;;;;;;0.80;0.80;;;-4.50;99.90;-5.30;96068.00;;;;5054088;28;20428;-84
2021/11/30 04:27:43;;;;;;;1.33;1.20;;;-4.50;99.90;-5.40;96070.00;;;;5054297;28;20444;-84
2021/11/30 04:30:32;;;;;;;1.57;1.47;;;-4.50;99.90;-5.50;96077.00;;;;5052515;28;20455;-82
2021/11/30 04:33:21;;;;;;;1.77;1.43;;;-4.50;99.90;-5.50;96073.00;;;;5051332;28;20827;-83
2021/11/30 04:36:12;;;;;;;1.13;1.10;;;-4.60;99.90;-5.50;96075.00;;;;5052890;28;20428;-85
2021/11/30 04:39:01;;;;;;;1.47;1.43;;;-4.60;99.90;-5.50;96079.00;;;;5056179;28;20455;-84
2021/11/30 04:41:50;;;;;;;0.87;0.87;;;-4.60;99.90;-5.60;96086.00;;;;5042756;28;20435;-85
2021/11/30 04:44:48;;;;;;;3.33;1.03;;;-4.50;99.90;-5.40;96093.00;;;;5055499;28;20443;-84
2021/11/30 04:47:39;;;;;;;1.30;1.20;;;-4.30;99.90;-5.60;96082.00;;;;5050077;28;20976;-83
2021/11/30 04:50:31;;;;;;;1.90;1.80;;;-4.40;99.90;-6.00;96074.00;;;;5056444;28;20423;-84
2021/11/30 04:53:22;;;;;;;2.10;1.57;;;-4.20;99.90;-5.90;96079.00;;;;5056107;28;20419;-85
2021/11/30 04:56:13;;;;;;;0.70;0.70;;;-4.80;99.90;-5.50;96078.00;;;;5051790;28;20962;-85
2021/11/30 04:59:02;;;;;;;0.80;0.80;;;-4.30;99.90;-5.20;96080.00;;;;5054608;28;20464;-84
2021/11/30 05:01:52;;;;;;;2.13;1.47;;;-4.60;99.90;-5.30;96081.00;;;;5055238;28;20438;-84
2021/11/30 05:04:42;;;;;;;2.07;1.03;;;-4.60;99.90;-5.30;96074.00;;;;5051040;28;20423;-83
2021/11/30 05:07:31;;;;;;;1.00;1.00;;;-4.30;99.90;-5.50;96073.00;;;;5055596;28;20439;-85
2021/11/30 05:10:21;;;;;;;2.47;1.57;;;-4.50;99.90;-5.60;96073.00;;;;5055709;28;20435;-83
2021/11/30 05:13:10;;;;;;;1.70;1.43;;;-4.00;99.90;-5.60;96078.00;;;;5053804;28;20427;-83
2021/11/30 05:15:59;;;;;;;0.70;0.70;;;-4.60;99.90;-5.50;96078.00;;;;5055424;28;20439;-85
2021/11/30 05:18:48;;;;;;;3.33;1.37;;;-4.60;99.90;-5.30;96078.00;;;;5056357;28;20533;-84
2021/11/30 05:21:37;;;;;;;0.80;0.80;;;-4.50;99.90;-5.30;96084.00;;;;5055822;28;20431;-83
2021/11/30 05:24:26;;;;;;;1.87;1.77;;;-4.50;99.90;-5.20;96078.00;;;;5046135;28;20424;-85
2021/11/30 05:27:16;;;;;;;2.57;1.40;;;-4.50;99.90;-5.50;96086.00;;;;5053411;28;20967;-84
2021/11/30 05:30:07;;;;;;;1.23;1.23;;;-4.50;99.90;-5.60;96084.00;;;;5054042;28;20451;-83
2021/11/30 05:32:56;;;;;;;2.83;1.87;;;-4.50;99.90;-5.60;96089.00;;;;5059701;28;20447;-84
2021/11/30 05:35:44;;;;;;;2.60;2.40;;;-4.30;99.90;-5.40;96093.00;;;;5057894;28;20438;-83
2021/11/30 05:38:34;;;;;;;2.37;2.17;;;-4.20;99.90;-5.50;96104.00;;;;5055698;28;20494;-84
2021/11/30 05:41:23;;;;;;;1.70;1.60;;;-4.30;99.90;-5.40;96098.00;;;;5054963;28;20898;-84
2021/11/30 05:44:13;;;;;;;1.60;1.50;;;-4.20;99.90;-5.50;96104.00;;;;5055952;28;20428;-83
2021/11/30 05:47:02;;;;;;;1.07;1.00;;;-4.60;99.90;-5.40;96108.00;;;;5057947;28;20427;-83
2021/11/30 05:49:51;;;;;;;1.00;1.00;;;-4.60;99.90;-5.50;96105.00;;;;5055691;28;20442;-83
2021/11/30 05:52:40;;;;;;;1.53;1.43;;;-4.70;99.90;-5.70;96093.00;;;;5055912;28;20853;-84
2021/11/30 05:55:30;;;;;;;1.63;1.53;;;-4.40;99.90;-5.70;96097.00;;;;5056143;28;20419;-84
2021/11/30 05:58:19;;;;;;;2.30;1.10;;;-4.70;99.90;-5.90;96101.00;;;;5044899;28;20844;-85
2021/11/30 06:01:20;;;;;;;1.10;1.10;;;-4.70;99.90;-5.70;96094.00;;;;5054068;28;21058;-82
2021/11/30 06:04:09;;;;;;;1.20;1.10;;;-4.80;99.90;-5.60;96111.00;;;;5056044;28;20487;-83
2021/11/30 06:06:57;;;;;;;2.53;1.10;;;-4.40;99.90;-5.50;96116.00;;;;5054323;28;20427;-82
2021/11/30 06:09:46;;;;;;;1.07;1.07;;;-4.70;99.90;-5.40;96119.00;;;;5054020;28;20423;-84
2021/11/30 06:12:35;;;;;;;1.13;1.00;;;-4.70;99.90;-5.60;96122.00;;;;5055278;28;20439;-84
2021/11/30 06:15:24;;;;;;;0.80;0.80;;;-4.60;99.90;-5.40;96117.00;;;;5060094;28;20453;-83
2021/11/30 06:18:14;;;;;;;2.23;1.70;;;-4.50;99.90;-5.40;96100.00;;;;5061003;28;21017;-84
2021/11/30 06:21:03;;;;;;;3.00;1.07;;;-4.20;99.90;-5.50;96104.00;;;;5059987;28;20425;-83
2021/11/30 06:23:53;;;;;;;1.70;1.60;;;-4.40;99.90;-5.20;96109.00;;;;5065761;28;20434;-83
2021/11/30 06:26:41;;;;;;;4.93;1.97;;;-4.40;99.90;-5.40;96094.00;;;;5070069;28;20598;-83
2021/11/30 06:29:30;;;;;;;3.20;2.30;;;-4.30;99.90;-5.30;96095.00;;;;5063331;28;20450;-84
2021/11/30 06:32:19;;;;;;;2.47;1.30;;;-4.40;99.90;-5.40;96112.00;;;;5060874;28;20826;-84
2021/11/30 06:35:10;;;;;;;2.53;2.33;;;-4.20;99.90;-5.50;96118.00;;;;5060788;28;20427;-82
2021/11/30 06:37:59;;;;;;;4.53;3.37;;;-4.30;99.90;-5.30;96109.00;;;;5060219;28;20478;-84
2021/11/30 06:40:48;;;;;;;3.57;3.27;;;-4.10;99.90;-5.30;96116.00;;;;5044271;28;20432;-79
2021/11/30 06:43:37;;;;;;;4.73;3.03;;;-4.30;99.90;-5.10;96128.00;;;;5052878;28;20453;-80
2021/11/30 06:46:26;;;;;;;5.40;3.60;;;-4.30;99.90;-5.00;96122.00;;;;5053949;28;20431;-81
2021/11/30 06:49:15;;;;;;;7.73;4.73;;;-4.30;99.90;-5.00;96118.00;;;;5053030;28;20952;-81
2021/11/30 06:52:06;;;;;;;8.20;4.30;;;-4.30;99.90;-4.90;96114.00;;;;5052620;28;20451;-82
2021/11/30 06:54:55;;;;;;;7.63;4.40;;;-4.20;99.90;-4.90;96123.00;;;;5052296;28;20435;-81
2021/11/30 06:57:44;;;;;;;4.87;3.30;;;-4.20;99.90;-4.90;96122.00;;;;5052761;28;21026;-81
2021/11/30 07:00:33;;;;;;;8.13;4.17;;;-4.20;99.90;-4.70;96138.00;;;;5046598;28;20423;-81
2021/11/30 07:03:22;;;;;;;4.37;2.77;;;-4.10;99.90;-4.60;96146.00;;;;5055163;28;21202;-84
2021/11/30 07:06:19;;;;;;;4.97;2.27;;;-4.00;99.90;-4.30;96140.00;;;;5051018;28;20825;-84
2021/11/30 07:09:19;;;;;;;4.27;3.17;;;-3.90;99.90;-4.50;96140.00;;;;5057919;28;20819;-84
2021/11/30 07:12:14;;;;;;;9.10;3.90;;;-3.80;99.90;-4.80;96142.00;;;;5058060;28;20450;-83
2021/11/30 07:15:04;;;;;;;4.93;3.17;;;-3.80;99.90;-4.50;96136.00;;;;5055394;28;20817;-84
2021/11/30 07:17:52;;;;;;;3.33;2.70;;;-3.80;99.90;-4.50;96136.00;;;;5056365;28;20478;-84
2021/11/30 07:20:43;;;;;;;4.07;2.93;;;-3.80;99.90;-4.30;96144.00;;;;5050965;28;20987;-83
2021/11/30 07:23:33;;;;;;;2.07;1.60;;;-3.70;99.90;-4.50;96128.00;;;;5056628;28;20408;-86
2021/11/30 07:26:25;;;;;;;3.40;2.07;;;-3.70;99.90;-4.50;96121.00;;;;5051337;28;20444;-83
2021/11/30 07:29:14;;;;;;;1.70;1.60;;;-3.70;99.90;-4.60;96134.00;;;;5056155;28;20798;-82
2021/11/30 07:32:03;;;;;;;2.37;1.90;;;-3.60;99.90;-4.20;96138.00;;;;5064271;28;20435;-84
2021/11/30 07:34:52;;;;;;;1.70;1.60;;;-3.60;99.90;-4.10;96135.00;;;;5056068;28;20431;-83
2021/11/30 07:37:41;;;;;;;1.63;1.43;;;-3.50;99.90;-4.10;96150.00;;;;5066490;28;20451;-84
2021/11/30 07:40:30;;;;;;;2.27;2.07;;;-3.40;99.90;-4.50;96130.00;;;;5050516;28;20431;-84
2021/11/30 07:43:20;;;;;;;2.00;1.23;;;-3.50;99.90;-3.80;96144.00;;;;5057513;28;20434;-86
2021/11/30 07:46:09;;;;;;;2.87;1.83;;;-3.30;99.90;-3.80;96133.00;;;;5054359;28;20808;-85
2021/11/30 07:48:58;;;;;;;2.00;1.67;;;-3.20;99.90;-3.90;96138.00;;;;5055674;28;20456;-83
2021/11/30 07:51:47;;;;;;;2.17;1.80;;;-3.20;99.90;-3.90;96144.00;;;;5054610;28;20435;-84
2021/11/30 07:54:36;;;;;;;2.37;2.17;;;-3.10;99.90;-3.90;96155.00;;;;5055772;28;20443;-84
2021/11/30 07:57:25;;;;;;;1.90;1.80;;;-2.70;99.90;-3.50;96146.00;;;;5055682;28;20428;-84
2021/11/30 08:00:18;;;;;;;1.47;1.37;;;-3.10;99.90;-3.30;96147.00;;;;5057266;28;20801;-85
2021/11/30 08:03:07;;;;;;;2.67;1.97;;;-2.90;99.90;-3.00;96142.00;;;;5058874;28;20788;-85
2021/11/30 08:05:56;;;;;;;1.50;1.40;;;-2.70;99.90;-3.00;96145.00;;;;5054128;28;20477;-84
2021/11/30 08:08:49;;;;;;;2.03;1.80;;;-2.60;99.90;-2.70;96159.00;;;;5050020;28;20550;-84
2021/11/30 08:11:38;;;;;;;3.37;2.37;;;-2.40;99.90;-2.40;96155.00;;;;5053720;28;20434;-85
2021/11/30 08:14:27;;;;;;;2.53;2.20;;;-2.30;99.90;-2.10;96159.00;;;;5051193;28;20422;-84
2021/11/30 08:17:19;;;;;;;3.70;2.97;;;-2.10;99.90;-1.90;96160.00;;;;5048766;28;20446;-85
2021/11/30 08:20:10;;;;;;;2.23;2.03;;;-1.90;99.90;-1.70;96142.00;;;;5048958;28;20471;-85
2021/11/30 08:22:59;;;;;;;4.47;3.00;;;-1.70;99.90;-1.40;96153.00;;;;5047858;28;20451;-84
2021/11/30 08:25:47;;;;;;;3.20;2.10;;;-1.50;99.90;-1.40;96149.00;;;;5050771;28;20426;-85
2021/11/30 08:28:36;;;;;;;3.43;2.43;;;-1.30;99.90;-1.80;96152.00;;;;5051594;28;20455;-85
2021/11/30 08:31:25;;;;;;;2.37;2.17;;;-1.10;99.90;-2.40;96150.00;;;;5045730;28;20422;-83
2021/11/30 08:34:15;;;;;;;7.43;6.70;;;-1.30;99.90;-2.20;96143.00;;;;5055673;28;20424;-83
2021/11/30 08:37:05;;;;;;;5.57;4.83;;;-1.40;99.90;-2.30;96145.00;;;;5053982;28;20432;-84
2021/11/30 08:39:55;;;;;;;3.17;2.97;;;-1.40;99.90;-2.70;96145.00;;;;5053841;28;20486;-84
2021/11/30 08:42:44;;;;;;;3.50;2.50;;;-1.40;99.90;-2.60;96142.00;;;;5054628;28;20431;-84
2021/11/30 08:45:33;;;;;;;3.00;2.67;;;-1.60;99.90;-2.90;96149.00;;;;5052053;28;20442;-83
2021/11/30 08:48:24;;;;;;;3.00;2.70;;;-1.80;99.90;-2.90;96142.00;;;;5052155;28;20766;-84
2021/11/30 08:51:15;;;;;;;2.83;2.10;;;-2.00;99.90;-2.90;96137.00;;;;5048827;28;21757;-84
2021/11/30 08:54:04;;;;;;;7.27;3.00;;;-2.10;99.90;-2.70;96131.00;;;;5051354;28;20430;-84
2021/11/30 08:56:53;;;;;;;2.57;2.17;;;-2.00;99.90;-2.50;96153.00;;;;5048196;28;20944;-84
2021/11/30 08:59:43;;;;;;;2.77;2.47;;;-1.90;99.90;-1.80;96141.00;;;;5048499;28;20455;-85
2021/11/30 09:02:33;;;;;;;4.20;3.07;;;-1.70;99.90;-1.40;96144.00;;;;5048657;28;20991;-85
2021/11/30 09:05:22;;;;;;;3.03;1.97;;;-1.40;99.90;-1.80;96137.00;;;;5043634;28;20461;-85
2021/11/30 09:08:12;;;;;;;9.27;3.80;;;0.20;99.90;-1.50;96143.00;;;;5049832;28;20558;-86
2021/11/30 09:11:01;;;;;;;6.40;3.73;;;-1.10;99.90;-1.10;96137.00;;;;5058841;28;20438;-86
2021/11/30 09:13:50;;;;;;;3.97;3.47;;;-0.90;99.90;-1.20;96118.00;;;;5069133;28;20487;-86
2021/11/30 09:16:39;;;;;;;7.97;3.43;;;-0.70;99.90;-0.70;96123.00;;;;5052244;28;20434;-83
2021/11/30 09:19:28;;;;;;;4.67;2.43;;;-0.60;99.90;-0.20;96115.00;;;;5049551;28;20483;-85
2021/11/30 09:22:20;;;;;;;2.97;2.73;;;0.00;99.90;-0.70;96099.00;;;;5049076;28;20451;-84
2021/11/30 09:25:11;;;;;;;2.77;2.57;;;-0.10;99.90;-0.20;96103.00;;;;5049907;28;20428;-84
2021/11/30 09:28:02;;;;;;;3.20;2.07;;;0.00;99.90;0.10;96113.00;;;;5048588;28;21054;-84
2021/11/30 09:30:51;;;;;;;2.97;1.77;;;0.20;99.90;0.20;96117.00;;;;5045688;28;20427;-85
2021/11/30 09:33:54;;;;;;;2.67;2.10;;;0.40;99.90;0.10;96118.00;;;;5048558;28;20435;-85
2021/11/30 09:36:46;;;;;;;3.13;2.13;;;0.40;99.90;-0.80;96098.00;;;;5050275;28;20427;-85
2021/11/30 09:39:35;;;;;;;2.40;2.20;;;0.40;99.90;-1.10;96084.00;;;;5048423;28;20477;-84
2021/11/30 09:42:25;;;;;;;3.50;2.70;;;0.10;99.90;-1.50;96086.00;;;;5048560;28;20435;-85
2021/11/30 09:45:14;;;;;;;2.30;1.83;;;-0.20;99.90;-1.50;96081.00;;;;5049688;28;20955;-84
2021/11/30 09:48:03;;;;;;;1.27;0.90;;;-0.40;99.90;-1.90;96061.00;;;;5050088;28;20466;-86
2021/11/30 09:50:52;;;;;;;2.10;1.50;;;-0.70;99.90;-1.40;96058.00;;;;5044436;28;20423;-84
2021/11/30 09:53:42;;;;;;;1.37;1.27;;;-0.60;99.90;-0.70;96061.00;;;;5052493;28;20428;-84
2021/11/30 09:56:30;;;;;;;1.17;1.07;;;-0.10;99.90;-1.40;96049.00;;;;5055357;28;20431;-86
2021/11/30 09:59:21;;;;;;;1.53;1.20;;;-0.50;99.90;-1.00;96037.00;;;;5048596;28;20451;-85
2021/11/30 10:02:10;;;;;;;1.30;1.20;;;-0.50;99.90;-0.90;96028.00;;;;5055461;28;20418;-84
2021/11/30 10:04:59;;;;;;;1.40;1.30;;;-0.40;99.90;-0.20;96040.00;;;;5052373;28;20732;-85
2021/11/30 10:07:51;;;;;;;1.23;1.17;;;-0.20;99.90;0.40;96040.00;;;;5056716;28;20446;-84
2021/11/30 10:10:40;;;;;;;3.37;2.07;;;0.00;99.90;1.00;96038.00;;;;5051520;28;20423;-83
2021/11/30 10:13:29;;;;;;;2.27;1.73;;;0.50;99.90;1.50;96038.00;;;;5054176;28;20431;-87
2021/11/30 10:16:20;;;;;;;1.53;1.27;;;1.20;99.90;2.30;96037.00;;;;5054078;28;20813;-83
2021/11/30 10:19:09;;;;;;;1.80;1.50;;;2.30;99.90;2.50;96023.00;;;;5054319;28;20478;-83
2021/11/30 10:21:58;;;;;;;2.57;1.93;;;3.40;99.90;3.00;96036.00;;;;5053791;28;20478;-84
2021/11/30 10:24:46;;;;;;;5.90;1.60;;;4.20;99.90;3.20;96033.00;;;;5052692;28;20427;-85
2021/11/30 10:27:35;;;;;;;10.27;3.23;;;4.80;99.90;3.80;96030.00;;;;5052249;28;20670;-84
2021/11/30 10:30:27;;;;;;;7.77;4.90;;;5.20;99.90;3.30;96029.00;;;;5049215;28;20201;-86
2021/11/30 10:33:21;;;;;;;17.17;7.33;;;5.30;99.90;2.90;96011.00;;;;5043949;28;20688;-86
2021/11/30 10:36:11;;;;;;;3.77;1.73;;;5.00;99.90;2.90;96016.00;;;;5050926;28;20212;-80
2021/11/30 10:38:59;;;;;;;2.57;2.27;;;4.70;99.90;4.10;96016.00;;;;5050590;28;20233;-85
2021/11/30 10:41:51;;;;;;;2.20;1.87;;;4.80;99.90;4.30;96013.00;;;;5052728;28;20704;-85
2021/11/30 10:44:40;;;;;;;4.13;2.97;;;5.20;99.90;4.90;96023.00;;;;5052401;28;20204;-84
2021/11/30 10:47:31;;;;;;;3.17;2.40;;;5.60;99.90;5.60;96021.00;;;;5061754;28;20208;-85
2021/11/30 10:50:25;;;;;;;2.47;2.00;;;6.00;99.90;6.60;96030.00;;;;5053227;28;20200;-85
2021/11/30 10:53:23;;;;;;;4.63;2.17;;;6.70;99.90;7.60;96019.00;;;;5054043;28;20209;-84
2021/11/30 10:56:11;;;;;;;4.77;2.57;;;7.40;99.90;8.00;96026.00;;;;5063537;28;20197;-85
2021/11/30 10:59:00;;;;;;;6.37;2.33;;;8.00;99.90;8.80;96016.00;;;;5054176;28;20232;-85
2021/11/30 11:01:50;;;;;;;3.87;2.03;;;8.60;99.90;9.20;96006.00;;;;5051935;28;20677;-85
2021/11/30 11:04:39;;;;;;;9.23;3.22;;;9.20;97.50;9.40;95995.00;;;;5049304;28;20439;-85
2021/11/30 11:07:29;;;;;;;4.80;2.23;;;9.80;93.50;9.20;95996.00;;;;5050776;28;20200;-84
2021/11/30 11:10:25;;;;;;;2.97;2.67;;;10.10;93.00;9.50;95987.00;;;;5046423;28;20221;-86
2021/11/30 11:13:26;;;;;;;3.53;2.80;;;10.40;91.50;10.00;95975.00;;;;5053091;28;20224;-86
2021/11/30 11:16:25;;;;;;;5.25;2.78;;;10.50;89.90;8.10;95962.00;;;;5046924;28;20409;-86
2021/11/30 11:19:14;;;;;;;6.18;3.42;;;10.80;82.50;8.90;95954.00;;;;5045904;28;20406;-85
2021/11/30 11:22:15;;;;;;;4.20;2.25;;;10.30;83.20;8.30;95960.00;;;;5052623;28;20831;-84
2021/11/30 11:25:06;;;;;;;3.85;2.55;;;10.20;82.50;9.30;95949.00;;;;5050952;28;20396;-84
2021/11/30 11:27:58;;;;;;;4.60;3.17;;;10.20;82.50;7.70;95942.00;;;;5055919;28;20217;-84
2021/11/30 11:30:47;;;;;;;16.17;2.80;;;10.10;81.50;8.70;95937.00;;;;5049254;28;20658;-81
2021/11/30 11:33:37;;;;;;;2.27;2.00;;;9.80;83.40;9.20;95950.00;;;;5052995;28;20204;-82
2021/11/30 11:36:26;;;;;;;3.13;2.20;;;9.80;84.10;8.50;95942.00;;;;5050635;28;20201;-82
2021/11/30 11:39:18;;;;;;;4.00;2.37;;;9.50;84.00;7.20;95934.00;;;;5050459;28;20220;-82
2021/11/30 11:42:13;;;;;;;2.43;1.83;;;9.30;83.80;6.50;95903.00;;;;5051749;28;20447;-81
2021/11/30 11:45:02;;;;;;;3.97;2.43;;;8.60;85.10;6.70;95899.00;;;;5050760;28;20216;-82
2021/11/30 11:47:51;;;;;;;3.47;2.50;;;8.30;87.60;6.60;95904.00;;;;5051170;28;20216;-82
2021/11/30 11:50:52;;;;;;;6.73;3.00;;;8.10;87.30;6.60;95899.00;;;;5051324;28;20197;-82
2021/11/30 11:53:52;;;;;;;4.97;2.93;;;8.00;87.10;7.10;95882.00;;;;5050642;28;20212;-82
2021/11/30 11:56:41;;;;;;;7.90;2.83;;;8.10;88.70;8.20;95888.00;;;;5051553;28;20262;-83
2021/11/30 11:59:35;;;;;;;3.57;2.23;;;8.40;88.10;8.10;95904.00;;;;5050294;28;20231;-81
2021/11/30 12:02:26;;;;;;;4.10;2.50;;;8.80;86.90;8.20;95899.00;;;;5074420;28;20199;-81
2021/11/30 12:05:16;;;;;;;4.47;2.30;;;8.90;87.40;8.00;95886.00;;;;5058199;28;20266;-85
2021/11/30 12:08:18;;;;;;;4.13;2.70;;;8.70;88.00;7.00;95873.00;;;;5048048;28;20236;-83
2021/11/30 12:11:11;;;;;;;3.60;2.13;;;8.50;87.60;7.20;95862.00;;;;5049373;28;20212;-83
2021/11/30 12:14:14;;;;;;;4.67;2.63;;;8.20;89.30;7.60;95872.00;;;;5051826;28;20211;-86
2021/11/30 12:17:16;;;;;;;4.97;2.20;;;8.10;90.90;7.50;95859.00;;;;5051161;28;20580;-83
2021/11/30 12:20:13;;;;;;;6.97;2.63;;;7.90;90.70;7.40;95873.00;;;;5044187;28;20216;-84
2021/11/30 12:23:03;;;;;;;3.57;2.20;;;7.80;91.10;7.20;95879.00;;;;5048939;28;20207;-82
2021/11/30 12:25:52;;;;;;;2.53;2.10;;;7.70;91.00;6.70;95860.00;;;;5048804;28;20673;-83
2021/11/30 12:28:41;;;;;;;5.87;2.93;;;7.60;91.70;6.30;95849.00;;;;5050403;28;20217;-82
2021/11/30 12:31:32;;;;;;;6.37;3.43;;;7.40;92.10;7.00;95835.00;;;;5040698;28;20215;-82
2021/11/30 12:34:36;;;;;;;7.50;3.10;;;7.30;92.00;7.10;95848.00;;;;5050667;28;20674;-82
2021/11/30 12:37:27;;;;;;;6.70;3.00;;;7.40;92.30;7.30;95837.00;;;;5050655;28;20208;-82
2021/11/30 12:40:18;;;;;;;5.87;2.57;;;7.40;92.60;6.60;95827.00;;;;5050217;28;20224;-82
2021/11/30 12:43:14;;;;;;;5.37;3.47;;;7.40;92.80;6.80;95831.00;;;;5049590;28;20196;-82